首页
METAR-TAF:

METAR-TAF

机场 :

突尼斯-迦太基国际机场

突尼斯, 突尼斯

纬度: 36-50N, 经度: 010-14E, 海拔: 3米

当前天气观测

该预报发布于33分钟前的14:30 UTC
风速19节,风向北转西北
温度 21°C
湿度 69%
气压 1016 hPa
能見度: 8000
散云层高于2000英尺, 塔状积云.

METAR: DTTA 231430Z 33019KT 8000 SCT020TCU 21/15 Q1016 TEMPO 4000 SHRA

时间: 16:03 (15:03 UTC)

预报

该预报发布于4小时和3分钟前的11:00 UTC
预报有效从23日的 12点(UTC)到 24日的 12点(UTC)
风速14节,风向西北
能見度: 6000
多云层高于2000英尺, 塔状积云.
少量云层高于3000英尺, 积雨云.
短暂存在
从 23日的 13点(UTC)到 23日的 18点(UTC)
风速35节,风向北转西北,有时为45节阵风
能見度: 4000
散云层高于2600英尺, 积雨云.
雷暴, 雨
成为
从 24日的 10点(UTC)到 24日的 12点(UTC)
风速15节,风向北转西北

TAF: DTTA 231100Z 2312/2412 31014KT 6000 RA BKN020TCU FEW030CB TEMPO 2313/2318 33035G45KT 4000 TSRA SCT026CB BECMG 2410/2412 34015KT

超过4000个机场的气象观测和天气预报(METAR&TAF报告)。

可查询的气象台以黄色和红色小点在地图上表示。

将鼠标移到小点上方,可查看气象台名称。

然后点击查看天气观测和预报。

如需切换地图:点击带黑十字的绿色按钮放大地图;点击带横线的绿色按钮缩小地图;或者点击绿色箭头查看邻近地区的地图。


METAR-TAF: